Time;durP1;ratioP1;P1;durP2;ratioP2;P2;SDS_P1;SDS_P2;PMS_P1;PMS_P2;Temp;Humidity;BMP_temperature;BMP_pressure;BME280_temperature;BME280_humidity;BME280_pressure;Samples;Min_cycle;Max_cycle;Signal;HPM_P1;HPM_P2
2023/12/16 00:01:10;;;;;;;2.10;0.30;;;34.70;31.80;;;;;;5041229;28;20033;-71
2023/12/16 00:03:37;;;;;;;5.15;0.60;;;34.40;31.30;;;;;;5043325;28;20036;-72
2023/12/16 00:06:05;;;;;;;1.02;0.30;;;34.20;30.80;;;;;;5050606;28;20037;-71
2023/12/16 00:08:33;;;;;;;2.00;0.85;;;34.30;29.90;;;;;;5052795;28;20538;-72
2023/12/16 00:11:00;;;;;;;3.92;0.40;;;34.20;30.40;;;;;;5049178;28;20025;-71
2023/12/16 00:13:27;;;;;;;2.08;0.40;;;34.40;31.80;;;;;;5048863;28;20657;-71
2023/12/16 00:15:55;;;;;;;4.22;0.40;;;34.70;31.20;;;;;;5054633;28;20026;-72
2023/12/16 00:18:22;;;;;;;1.38;0.10;;;35.00;29.60;;;;;;5054007;28;20362;-71
2023/12/16 00:20:50;;;;;;;0.40;0.30;;;35.00;30.60;;;;;;5039601;28;20029;-69
2023/12/16 00:23:17;;;;;;;3.70;0.32;;;35.00;30.20;;;;;;5031878;28;20117;-71
2023/12/16 00:25:45;;;;;;;1.20;0.30;;;34.60;30.20;;;;;;5048834;28;20049;-71
2023/12/16 00:28:12;;;;;;;1.77;0.30;;;34.50;29.70;;;;;;5032789;28;20060;-71
2023/12/16 00:30:40;;;;;;;1.55;0.40;;;34.80;29.50;;;;;;5055139;28;20031;-71
2023/12/16 00:33:07;;;;;;;1.65;0.20;;;35.10;29.60;;;;;;5056599;28;20076;-72
2023/12/16 00:35:34;;;;;;;1.55;0.30;;;35.00;29.40;;;;;;5039646;28;20025;-72
2023/12/16 00:38:02;;;;;;;1.23;0.30;;;35.10;29.70;;;;;;5052153;28;20071;-71
2023/12/16 00:40:29;;;;;;;1.00;0.30;;;35.10;29.30;;;;;;5057553;28;20739;-71
2023/12/16 00:42:57;;;;;;;2.03;0.30;;;35.50;29.90;;;;;;5057195;28;20370;-71
2023/12/16 00:45:24;;;;;;;1.35;0.20;;;35.70;29.60;;;;;;5055077;28;20478;-72
2023/12/16 00:47:51;;;;;;;1.92;0.50;;;35.90;29.90;;;;;;5056099;28;20025;-71
2023/12/16 00:50:18;;;;;;;4.05;0.40;;;35.80;29.40;;;;;;5058229;28;20106;-71
2023/12/16 00:52:46;;;;;;;1.45;0.45;;;36.00;29.50;;;;;;5055552;28;20539;-71
2023/12/16 00:55:13;;;;;;;0.95;0.22;;;35.60;29.30;;;;;;5054873;28;20033;-71
2023/12/16 00:57:41;;;;;;;1.08;0.50;;;35.60;29.00;;;;;;5042593;28;20029;-72
2023/12/16 01:00:09;;;;;;;1.30;0.40;;;35.80;30.00;;;;;;5054647;28;20020;-72
2023/12/16 01:02:37;;;;;;;1.95;0.52;;;35.80;29.60;;;;;;5053757;28;20056;-72
2023/12/16 01:05:04;;;;;;;1.30;0.50;;;36.10;29.60;;;;;;5057036;28;20074;-72
2023/12/16 01:07:32;;;;;;;3.88;0.43;;;35.70;29.80;;;;;;5053359;28;20573;-71
2023/12/16 01:09:59;;;;;;;3.42;0.52;;;35.80;29.20;;;;;;5053015;28;20029;-72
2023/12/16 01:12:27;;;;;;;1.58;0.55;;;35.90;29.20;;;;;;5060300;28;20024;-72
2023/12/16 01:14:54;;;;;;;1.45;0.35;;;35.80;29.70;;;;;;5052413;28;20064;-72
2023/12/16 01:17:25;;;;;;;1.15;0.40;;;36.10;29.80;;;;;;5033995;28;20025;-72
2023/12/16 01:19:53;;;;;;;1.52;0.40;;;36.40;29.90;;;;;;5048039;28;20065;-72
2023/12/16 01:22:21;;;;;;;8.18;0.50;;;36.60;29.60;;;;;;5038921;28;20547;-71
2023/12/16 01:24:51;;;;;;;0.75;0.40;;;37.10;29.40;;;;;;5058926;28;20035;-71
2023/12/16 01:27:20;;;;;;;0.70;0.40;;;37.40;29.30;;;;;;5048467;28;20102;-71
2023/12/16 01:29:47;;;;;;;4.13;0.60;;;37.60;29.50;;;;;;5057623;28;20056;-71
2023/12/16 01:32:15;;;;;;;1.20;0.32;;;38.00;29.60;;;;;;5033979;28;20056;-72
2023/12/16 01:34:42;;;;;;;2.40;0.30;;;38.10;29.00;;;;;;5043003;28;20478;-72
2023/12/16 01:37:09;;;;;;;1.67;0.30;;;38.00;28.50;;;;;;5050154;28;20028;-71
2023/12/16 01:39:37;;;;;;;4.25;0.45;;;38.00;28.40;;;;;;5048418;28;20025;-71
2023/12/16 01:42:05;;;;;;;1.23;0.43;;;37.90;28.70;;;;;;5052157;28;20037;-71
2023/12/16 01:44:32;;;;;;;1.60;0.45;;;37.70;28.00;;;;;;5034388;28;20106;-71
2023/12/16 01:47:00;;;;;;;1.75;0.40;;;37.00;27.70;;;;;;5049136;28;20064;-70
2023/12/16 01:49:27;;;;;;;2.92;0.50;;;36.40;27.60;;;;;;5050184;28;20327;-72
2023/12/16 01:51:55;;;;;;;1.63;0.47;;;36.50;28.10;;;;;;5054433;28;20047;-71
2023/12/16 01:54:24;;;;;;;2.03;0.30;;;36.40;27.70;;;;;;5052422;28;20473;-71
2023/12/16 01:57:03;;;;;;;3.25;0.40;;;36.30;27.80;;;;;;5051632;28;20025;-71
2023/12/16 01:59:30;;;;;;;1.30;0.52;;;36.60;28.20;;;;;;5056033;28;20023;-72
2023/12/16 02:02:01;;;;;;;0.93;0.30;;;36.90;28.50;;;;;;5050897;28;20033;-71
2023/12/16 02:04:29;;;;;;;3.05;0.38;;;37.40;28.40;;;;;;5053778;28;20537;-72
2023/12/16 02:07:00;;;;;;;1.33;0.40;;;37.40;27.20;;;;;;5060550;28;20040;-72
2023/12/16 02:09:28;;;;;;;2.22;0.30;;;36.90;27.00;;;;;;5054529;28;20032;-72
2023/12/16 02:11:55;;;;;;;1.30;0.45;;;36.60;27.70;;;;;;5055729;28;20160;-72
2023/12/16 02:14:22;;;;;;;2.30;0.43;;;36.70;27.50;;;;;;5055140;28;20366;-73
2023/12/16 02:16:50;;;;;;;1.60;0.30;;;37.00;27.60;;;;;;5053660;28;20029;-73
2023/12/16 02:19:25;;;;;;;2.85;0.50;;;37.40;27.60;;;;;;5041636;28;20021;-73
2023/12/16 02:21:53;;;;;;;1.75;0.30;;;37.40;27.40;;;;;;5054674;28;20024;-72
2023/12/16 02:24:21;;;;;;;1.67;0.35;;;37.00;28.10;;;;;;5038222;28;20024;-71
2023/12/16 02:26:49;;;;;;;1.25;0.40;;;37.50;27.40;;;;;;5054336;28;20051;-71
2023/12/16 02:29:16;;;;;;;6.80;0.40;;;37.60;27.20;;;;;;5052769;28;20029;-72
2023/12/16 02:31:43;;;;;;;3.15;0.65;;;37.10;26.60;;;;;;5051593;28;20465;-72
2023/12/16 02:34:11;;;;;;;1.73;0.40;;;36.70;27.30;;;;;;5060818;28;20024;-72
2023/12/16 02:36:38;;;;;;;0.70;0.30;;;37.10;27.40;;;;;;5051413;28;20237;-72
2023/12/16 02:39:06;;;;;;;1.95;0.45;;;37.30;26.90;;;;;;5051694;28;20101;-73
2023/12/16 02:41:33;;;;;;;2.15;0.40;;;36.90;27.00;;;;;;5034133;28;20029;-72
2023/12/16 02:44:00;;;;;;;3.80;0.65;;;37.20;27.80;;;;;;5044614;28;20402;-72
2023/12/16 02:46:30;;;;;;;2.13;0.35;;;37.60;27.30;;;;;;5046668;28;20541;-72
2023/12/16 02:48:57;;;;;;;1.52;0.40;;;37.80;27.00;;;;;;5021260;28;20032;-72
2023/12/16 02:51:25;;;;;;;1.25;0.57;;;37.90;26.90;;;;;;5045152;28;20500;-72
2023/12/16 02:53:53;;;;;;;1.25;0.25;;;37.60;26.50;;;;;;5043884;28;20413;-72
2023/12/16 02:56:20;;;;;;;2.60;0.30;;;37.70;26.60;;;;;;5047140;28;20021;-72
2023/12/16 02:58:49;;;;;;;3.13;0.50;;;37.20;27.00;;;;;;5045617;28;20120;-72
2023/12/16 03:01:16;;;;;;;1.63;0.50;;;37.70;27.30;;;;;;5030611;28;20068;-72
2023/12/16 03:03:44;;;;;;;2.25;0.40;;;38.20;27.10;;;;;;5051758;28;20142;-72
2023/12/16 03:06:11;;;;;;;1.70;0.40;;;38.70;27.40;;;;;;5034330;28;20036;-73
2023/12/16 03:08:39;;;;;;;2.65;0.40;;;38.40;25.80;;;;;;5042943;28;20064;-72
2023/12/16 03:11:06;;;;;;;0.63;0.20;;;37.70;26.20;;;;;;5043755;28;20029;-72
2023/12/16 03:13:34;;;;;;;3.28;0.40;;;37.60;26.20;;;;;;5043039;28;20029;-72
2023/12/16 03:16:01;;;;;;;2.00;0.40;;;37.50;25.70;;;;;;5046944;28;20112;-72
2023/12/16 03:18:28;;;;;;;2.42;0.50;;;37.80;26.60;;;;;;5045990;28;20098;-73
2023/12/16 03:20:56;;;;;;;1.25;0.38;;;38.20;26.40;;;;;;5047530;28;20029;-74
2023/12/16 03:23:24;;;;;;;8.48;0.55;;;38.60;26.20;;;;;;5037027;28;20470;-73
2023/12/16 03:25:51;;;;;;;1.20;0.70;;;38.40;25.80;;;;;;5036330;28;20036;-72
2023/12/16 03:28:19;;;;;;;0.77;0.40;;;38.10;26.40;;;;;;5046818;28;20116;-73
2023/12/16 03:30:46;;;;;;;2.47;0.30;;;38.20;25.60;;;;;;5050611;28;20112;-73
2023/12/16 03:33:14;;;;;;;1.27;0.30;;;38.10;25.90;;;;;;5052797;28;20052;-73
2023/12/16 03:35:41;;;;;;;1.88;0.38;;;37.90;26.30;;;;;;5048590;28;20029;-73
2023/12/16 03:38:08;;;;;;;2.03;0.45;;;38.30;26.10;;;;;;5036994;28;20028;-72
2023/12/16 03:40:36;;;;;;;1.40;0.35;;;38.20;26.00;;;;;;5052008;28;20494;-72
2023/12/16 03:43:03;;;;;;;2.42;0.70;;;38.40;26.00;;;;;;5053287;28;20051;-73
2023/12/16 03:45:31;;;;;;;2.47;0.38;;;38.60;26.60;;;;;;5031769;28;20045;-72
2023/12/16 03:47:58;;;;;;;1.08;0.40;;;38.50;25.90;;;;;;5053729;28;20445;-73
2023/12/16 03:50:26;;;;;;;2.67;0.40;;;38.40;26.30;;;;;;5053030;28;20107;-72
2023/12/16 03:52:53;;;;;;;2.53;0.45;;;38.40;26.70;;;;;;5052810;28;20017;-72
2023/12/16 03:55:20;;;;;;;2.75;0.40;;;38.70;26.40;;;;;;5054060;28;20053;-72
2023/12/16 03:57:48;;;;;;;2.40;0.57;;;38.60;26.80;;;;;;5056184;28;20792;-72
2023/12/16 04:00:15;;;;;;;0.98;0.28;;;38.40;27.10;;;;;;5055007;28;20028;-72
2023/12/16 04:02:43;;;;;;;2.03;0.60;;;38.40;26.50;;;;;;5049603;28;20025;-72
2023/12/16 04:05:10;;;;;;;5.43;0.30;;;38.10;26.20;;;;;;5057755;28;20021;-72
2023/12/16 04:07:38;;;;;;;0.85;0.20;;;38.20;27.00;;;;;;5054913;28;20485;-73
2023/12/16 04:10:06;;;;;;;4.18;0.73;;;38.50;27.00;;;;;;5059578;28;20028;-73
2023/12/16 04:12:33;;;;;;;2.15;0.50;;;38.70;26.80;;;;;;5040314;28;20090;-72
2023/12/16 04:15:00;;;;;;;2.70;0.20;;;38.60;25.90;;;;;;5039903;28;20033;-72
2023/12/16 04:17:28;;;;;;;0.57;0.13;;;38.20;26.30;;;;;;5055471;28;20134;-71
2023/12/16 04:19:55;;;;;;;7.75;0.40;;;37.80;26.60;;;;;;5039762;28;20379;-71
2023/12/16 04:22:23;;;;;;;2.67;0.43;;;37.90;26.50;;;;;;5054721;28;20021;-74
2023/12/16 04:24:57;;;;;;;2.08;0.40;;;38.00;27.10;;;;;;5051948;28;20021;-72
2023/12/16 04:27:27;;;;;;;3.53;0.70;;;38.10;26.70;;;;;;5059563;28;20060;-72
2023/12/16 04:29:55;;;;;;;3.33;0.30;;;38.00;26.30;;;;;;5052282;28;20203;-72
2023/12/16 04:32:22;;;;;;;2.78;0.65;;;37.30;26.70;;;;;;5055357;28;20029;-72
2023/12/16 04:34:49;;;;;;;2.10;0.50;;;37.00;26.80;;;;;;5060902;28;20055;-72
2023/12/16 04:37:17;;;;;;;1.92;0.50;;;37.20;26.90;;;;;;5052069;28;20025;-72
2023/12/16 04:39:44;;;;;;;2.72;0.52;;;37.20;27.10;;;;;;5051108;28;20369;-73
2023/12/16 04:42:12;;;;;;;2.50;0.40;;;37.10;27.10;;;;;;5052152;28;20028;-70
2023/12/16 04:44:39;;;;;;;3.33;0.35;;;36.90;27.00;;;;;;5037472;28;20033;-71
2023/12/16 04:47:07;;;;;;;2.13;0.50;;;36.70;27.10;;;;;;5054255;28;20032;-72
2023/12/16 04:49:35;;;;;;;3.78;0.55;;;36.70;28.40;;;;;;5049111;28;20114;-72
2023/12/16 04:52:02;;;;;;;0.75;0.20;;;36.90;27.20;;;;;;5046722;28;20494;-72
2023/12/16 04:54:30;;;;;;;2.22;0.55;;;37.00;27.40;;;;;;5047733;28;20021;-72
2023/12/16 04:56:57;;;;;;;2.10;0.35;;;36.90;27.20;;;;;;5052660;28;20413;-73
2023/12/16 04:59:24;;;;;;;3.83;0.70;;;37.00;27.40;;;;;;5059843;28;20013;-73
2023/12/16 05:01:52;;;;;;;4.40;0.68;;;36.80;27.60;;;;;;5051015;28;20489;-72
2023/12/16 05:04:19;;;;;;;2.90;0.68;;;36.90;27.80;;;;;;5032222;28;20090;-73
2023/12/16 05:06:47;;;;;;;3.40;0.35;;;37.30;27.80;;;;;;5053631;28;20067;-72
2023/12/16 05:09:14;;;;;;;2.20;0.77;;;37.20;27.70;;;;;;5032065;28;20037;-72
2023/12/16 05:11:41;;;;;;;1.60;0.30;;;36.90;27.20;;;;;;5054836;28;20033;-72
2023/12/16 05:14:09;;;;;;;1.23;0.55;;;36.70;27.30;;;;;;5059472;28;20040;-73
2023/12/16 05:16:36;;;;;;;2.70;0.35;;;36.60;27.70;;;;;;5050678;28;20080;-72
2023/12/16 05:19:03;;;;;;;1.50;0.50;;;36.40;27.70;;;;;;5053342;28;20021;-72
2023/12/16 05:21:31;;;;;;;5.35;0.60;;;36.50;28.00;;;;;;5055306;28;20020;-72
2023/12/16 05:23:58;;;;;;;2.08;0.47;;;36.50;27.80;;;;;;5054472;28;20024;-73
2023/12/16 05:26:25;;;;;;;2.60;0.40;;;36.80;28.20;;;;;;5055463;28;20035;-73
2023/12/16 05:28:53;;;;;;;3.67;0.80;;;36.90;28.10;;;;;;5056771;28;20040;-72
2023/12/16 05:31:20;;;;;;;1.90;0.50;;;36.60;27.50;;;;;;5051882;28;20032;-72
2023/12/16 05:33:48;;;;;;;1.35;0.40;;;36.40;27.90;;;;;;5057767;28;20029;-72
2023/12/16 05:36:15;;;;;;;3.22;0.50;;;36.50;28.00;;;;;;5059510;28;20540;-72
2023/12/16 05:38:42;;;;;;;4.18;0.38;;;36.50;27.10;;;;;;5058178;28;20535;-72
2023/12/16 05:41:12;;;;;;;1.20;0.30;;;36.50;27.30;;;;;;5054476;28;20211;-73
2023/12/16 05:43:40;;;;;;;2.05;0.50;;;36.40;27.20;;;;;;5059311;28;20468;-73
2023/12/16 05:46:07;;;;;;;5.00;0.85;;;36.40;27.60;;;;;;5059239;28;20373;-73
2023/12/16 05:48:36;;;;;;;3.00;0.40;;;36.50;27.40;;;;;;5051127;28;20079;-73
2023/12/16 05:51:05;;;;;;;2.88;0.63;;;36.20;27.40;;;;;;5048643;28;20067;-73
2023/12/16 05:53:36;;;;;;;3.35;0.60;;;36.00;27.60;;;;;;5047957;28;20037;-73
2023/12/16 05:56:07;;;;;;;3.75;0.40;;;35.90;27.80;;;;;;5053160;28;20078;-72
2023/12/16 05:58:34;;;;;;;4.60;0.90;;;35.70;27.50;;;;;;5059907;28;20100;-72
2023/12/16 06:01:04;;;;;;;2.25;0.50;;;35.60;27.40;;;;;;5055402;28;20082;-72
2023/12/16 06:03:31;;;;;;;3.20;0.40;;;35.60;27.40;;;;;;5056977;28;20078;-72
2023/12/16 06:05:58;;;;;;;2.15;0.40;;;35.70;27.60;;;;;;5046811;28;20266;-72
2023/12/16 06:08:26;;;;;;;2.25;0.60;;;35.90;28.00;;;;;;5045877;28;20511;-71
2023/12/16 06:10:53;;;;;;;1.67;0.50;;;35.90;27.50;;;;;;5062959;28;20048;-72
2023/12/16 06:13:21;;;;;;;3.60;0.40;;;35.70;27.70;;;;;;5030739;28;20028;-72
2023/12/16 06:15:48;;;;;;;1.83;0.40;;;35.60;27.70;;;;;;5055342;28;20474;-72
2023/12/16 06:18:15;;;;;;;2.72;0.38;;;35.60;27.90;;;;;;5060889;28;20035;-72
2023/12/16 06:20:43;;;;;;;3.83;0.50;;;35.70;27.90;;;;;;5027234;28;20036;-73
2023/12/16 06:23:11;;;;;;;5.25;0.60;;;35.60;27.90;;;;;;5048522;28;20031;-73
2023/12/16 06:25:38;;;;;;;3.15;0.70;;;35.60;27.40;;;;;;5049511;28;20049;-73
2023/12/16 06:28:06;;;;;;;3.15;0.40;;;35.50;27.60;;;;;;5050101;28;20052;-72
2023/12/16 06:30:34;;;;;;;3.63;0.40;;;35.50;27.70;;;;;;5053694;28;20036;-72
2023/12/16 06:33:01;;;;;;;1.67;0.30;;;35.40;27.50;;;;;;5042809;28;20079;-73
2023/12/16 06:35:29;;;;;;;4.13;0.68;;;35.40;27.40;;;;;;5047666;28;20033;-71
2023/12/16 06:37:56;;;;;;;3.63;0.50;;;35.40;27.50;;;;;;5045654;28;20832;-72
2023/12/16 06:40:23;;;;;;;2.47;0.40;;;35.30;27.70;;;;;;5027812;28;20425;-73
2023/12/16 06:42:51;;;;;;;2.70;0.60;;;35.20;27.60;;;;;;5049269;28;20020;-71
2023/12/16 06:45:18;;;;;;;2.50;0.38;;;35.10;28.10;;;;;;5052277;28;20016;-73
2023/12/16 06:47:46;;;;;;;2.42;0.47;;;35.00;27.70;;;;;;5048997;28;20031;-73
2023/12/16 06:50:13;;;;;;;1.55;0.40;;;35.00;27.80;;;;;;5050076;28;20498;-72
2023/12/16 06:52:40;;;;;;;3.53;0.70;;;34.90;27.70;;;;;;5055852;28;20519;-72
2023/12/16 06:55:09;;;;;;;6.00;0.60;;;34.90;27.80;;;;;;5045368;28;20022;-73
2023/12/16 06:57:37;;;;;;;3.78;0.40;;;34.70;28.00;;;;;;5032234;28;20024;-72
2023/12/16 07:00:06;;;;;;;2.92;0.77;;;34.60;28.20;;;;;;5047064;28;20520;-73
2023/12/16 07:02:33;;;;;;;1.80;0.40;;;34.60;28.10;;;;;;5049568;28;20458;-72
2023/12/16 07:05:01;;;;;;;1.63;0.30;;;34.50;28.40;;;;;;5055148;28;20029;-71
2023/12/16 07:07:28;;;;;;;1.95;0.50;;;34.50;28.30;;;;;;5052038;28;20033;-72
2023/12/16 07:09:55;;;;;;;2.72;0.68;;;34.50;28.10;;;;;;5051115;28;20029;-72
2023/12/16 07:12:23;;;;;;;1.48;0.40;;;34.50;28.50;;;;;;5055456;28;20107;-73
2023/12/16 07:14:51;;;;;;;4.10;0.43;;;34.30;28.70;;;;;;5046141;28;20035;-70
2023/12/16 07:17:18;;;;;;;3.08;0.60;;;34.20;28.60;;;;;;5056234;28;20043;-69
2023/12/16 07:19:46;;;;;;;5.18;0.93;;;34.20;28.40;;;;;;5054860;28;20031;-69
2023/12/16 07:22:19;;;;;;;7.60;0.90;;;34.10;28.50;;;;;;5053989;28;20024;-69
2023/12/16 07:24:46;;;;;;;3.40;0.40;;;34.00;28.60;;;;;;5050194;28;20490;-69
2023/12/16 07:27:13;;;;;;;4.63;0.70;;;33.90;28.80;;;;;;5056088;28;20030;-69
2023/12/16 07:29:42;;;;;;;8.52;0.88;;;33.90;29.10;;;;;;5049211;28;20071;-70
2023/12/16 07:32:09;;;;;;;1.90;0.63;;;33.90;29.20;;;;;;5050930;28;20059;-69
2023/12/16 07:34:40;;;;;;;3.38;0.93;;;33.90;29.40;;;;;;5053394;28;20036;-69
2023/12/16 07:37:07;;;;;;;4.90;0.98;;;33.80;29.20;;;;;;5052834;28;20024;-69
2023/12/16 07:39:35;;;;;;;4.50;0.93;;;33.70;29.70;;;;;;5047762;28;20021;-70
2023/12/16 07:42:02;;;;;;;2.88;0.70;;;33.50;29.50;;;;;;5048975;28;20037;-70
2023/12/16 07:44:30;;;;;;;2.28;0.52;;;33.50;29.20;;;;;;5049658;28;20028;-70
2023/12/16 07:46:57;;;;;;;2.72;0.77;;;33.40;29.50;;;;;;5047972;28;20584;-70
2023/12/16 07:49:25;;;;;;;3.40;0.50;;;33.30;29.70;;;;;;5052255;28;20024;-70
2023/12/16 07:51:57;;;;;;;3.33;0.60;;;33.20;29.90;;;;;;5045126;28;20481;-70
2023/12/16 07:54:27;;;;;;;5.90;1.65;;;33.40;30.50;;;;;;5053417;28;20361;-70
2023/12/16 07:56:55;;;;;;;6.72;1.83;;;33.20;37.70;;;;;;5047001;28;20025;-69
2023/12/16 07:59:22;;;;;;;5.60;1.63;;;33.00;39.20;;;;;;5050853;28;20112;-69
2023/12/16 08:01:52;;;;;;;6.72;1.67;;;32.50;39.80;;;;;;5054865;28;20040;-69
2023/12/16 08:04:19;;;;;;;3.55;1.25;;;32.10;40.90;;;;;;5045191;28;20021;-69
2023/12/16 08:06:47;;;;;;;4.13;1.35;;;31.80;41.40;;;;;;5034825;28;20380;-70
2023/12/16 08:09:15;;;;;;;3.90;1.60;;;32.10;42.30;;;;;;5046329;28;20033;-69
2023/12/16 08:11:42;;;;;;;5.88;1.27;;;31.90;43.80;;;;;;5029357;28;20029;-69
2023/12/16 08:14:09;;;;;;;5.75;1.55;;;31.80;43.00;;;;;;5048736;28;20425;-70
2023/12/16 08:16:40;;;;;;;5.93;1.40;;;31.60;43.30;;;;;;5044121;28;20087;-70
2023/12/16 08:19:07;;;;;;;5.13;1.33;;;31.40;43.70;;;;;;5034750;28;20074;-70
2023/12/16 08:21:35;;;;;;;5.28;1.70;;;31.30;44.00;;;;;;5044457;28;20025;-70
2023/12/16 08:24:02;;;;;;;5.53;1.55;;;31.30;44.40;;;;;;5046611;28;20029;-70
2023/12/16 08:26:29;;;;;;;6.22;1.33;;;31.20;44.40;;;;;;5055433;28;20037;-69
2023/12/16 08:28:57;;;;;;;6.50;1.38;;;31.20;44.50;;;;;;5039976;28;20041;-69
2023/12/16 08:31:24;;;;;;;6.82;1.50;;;31.10;44.80;;;;;;5023766;28;20033;-69
2023/12/16 08:33:52;;;;;;;6.53;1.42;;;31.10;45.20;;;;;;5048640;28;20055;-69
2023/12/16 08:36:20;;;;;;;4.15;1.38;;;30.70;45.00;;;;;;5048760;28;20064;-69
2023/12/16 08:38:48;;;;;;;8.13;1.90;;;30.60;45.20;;;;;;5047535;28;20037;-71
2023/12/16 08:41:15;;;;;;;5.43;1.30;;;30.30;43.60;;;;;;5035082;28;20031;-71
2023/12/16 08:43:43;;;;;;;7.82;1.15;;;29.90;43.00;;;;;;5048177;28;20025;-72
2023/12/16 08:46:11;;;;;;;2.63;0.93;;;29.80;42.40;;;;;;5052087;28;20147;-73
2023/12/16 08:48:40;;;;;;;5.10;0.93;;;29.60;41.00;;;;;;5048968;28;20060;-71
2023/12/16 08:51:08;;;;;;;4.63;1.00;;;29.30;40.70;;;;;;5051571;28;20127;-71
2023/12/16 08:53:39;;;;;;;3.70;1.10;;;29.20;40.90;;;;;;5048526;28;20033;-72
2023/12/16 08:56:07;;;;;;;6.45;1.42;;;29.10;41.30;;;;;;5051405;28;20079;-72
2023/12/16 08:58:34;;;;;;;4.00;0.80;;;29.00;42.40;;;;;;5036902;28;20092;-71
2023/12/16 09:01:03;;;;;;;6.50;1.15;;;28.80;43.00;;;;;;5035636;28;20029;-73
2023/12/16 09:03:30;;;;;;;9.10;1.20;;;28.70;44.10;;;;;;5058814;28;20044;-69
2023/12/16 09:05:57;;;;;;;7.68;1.58;;;28.60;45.50;;;;;;5054259;28;20045;-71
2023/12/16 09:08:25;;;;;;;4.28;1.98;;;28.60;48.20;;;;;;5034635;28;20021;-71
2023/12/16 09:10:52;;;;;;;13.23;2.13;;;28.20;53.90;;;;;;5060774;28;20037;-70
2023/12/16 09:13:20;;;;;;;9.00;1.80;;;27.80;58.40;;;;;;5059427;28;20032;-70
2023/12/16 09:15:47;;;;;;;8.35;2.42;;;27.50;63.90;;;;;;5060464;28;20411;-72
2023/12/16 09:18:14;;;;;;;7.13;1.98;;;27.20;70.50;;;;;;5034969;28;20017;-69
2023/12/16 09:20:42;;;;;;;12.35;2.75;;;26.90;80.30;;;;;;5055102;28;20032;-70
2023/12/16 09:23:09;;;;;;;12.20;2.70;;;26.70;85.80;;;;;;5053181;28;20033;-69
2023/12/16 09:25:36;;;;;;;13.38;2.72;;;26.50;90.40;;;;;;5042500;28;20551;-70
2023/12/16 09:28:04;;;;;;;14.38;2.30;;;26.40;91.40;;;;;;5059493;28;20024;-70
2023/12/16 09:30:31;;;;;;;15.07;2.55;;;26.20;92.50;;;;;;5055946;28;20017;-70
2023/12/16 09:32:58;;;;;;;12.50;2.47;;;26.00;93.30;;;;;;5051408;28;20033;-69
2023/12/16 09:35:26;;;;;;;15.20;2.15;;;25.90;93.70;;;;;;5052330;28;20024;-72
2023/12/16 09:37:54;;;;;;;12.32;2.20;;;26.00;93.40;;;;;;5033119;28;20025;-72
2023/12/16 09:40:22;;;;;;;10.43;2.40;;;26.00;93.20;;;;;;5048509;28;20035;-71
2023/12/16 09:42:52;;;;;;;16.17;3.15;;;25.90;93.20;;;;;;5048683;28;20063;-71
2023/12/16 09:45:19;;;;;;;10.00;2.55;;;25.90;93.00;;;;;;5048114;28;20167;-70
2023/12/16 09:47:48;;;;;;;11.70;2.45;;;25.70;93.10;;;;;;5051063;28;20029;-70
2023/12/16 09:50:16;;;;;;;13.77;2.33;;;25.80;93.00;;;;;;5049797;28;20068;-70
2023/12/16 09:52:44;;;;;;;15.05;2.67;;;25.80;92.90;;;;;;5047755;28;20357;-70
2023/12/16 09:55:14;;;;;;;14.00;2.17;;;25.70;92.80;;;;;;5049920;28;20029;-70
2023/12/16 09:57:42;;;;;;;19.67;2.40;;;25.60;93.00;;;;;;5046595;28;20029;-69
2023/12/16 10:00:12;;;;;;;11.40;2.85;;;25.40;93.40;;;;;;5047507;28;20119;-72
2023/12/16 10:02:40;;;;;;;7.85;2.17;;;25.40;93.50;;;;;;5055767;28;20060;-69
2023/12/16 10:05:10;;;;;;;6.78;2.08;;;25.30;93.50;;;;;;5048878;28;20020;-70
2023/12/16 10:07:37;;;;;;;14.23;2.53;;;25.20;93.40;;;;;;5027220;28;20458;-70
2023/12/16 10:10:05;;;;;;;12.63;2.20;;;25.20;93.60;;;;;;5050626;28;20025;-70
2023/12/16 10:12:36;;;;;;;11.98;2.85;;;25.20;93.70;;;;;;5044473;28;20029;-69
2023/12/16 10:15:03;;;;;;;13.18;2.17;;;25.40;93.40;;;;;;5037635;28;20494;-68
2023/12/16 10:17:31;;;;;;;13.75;1.95;;;25.40;93.10;;;;;;5050662;28;20119;-72
2023/12/16 10:19:59;;;;;;;11.27;2.78;;;25.20;93.30;;;;;;5053812;28;20031;-69
2023/12/16 10:22:28;;;;;;;12.75;2.33;;;25.20;93.40;;;;;;5055004;28;20036;-70
2023/12/16 10:24:55;;;;;;;15.07;2.35;;;25.10;93.50;;;;;;5048988;28;20127;-68
2023/12/16 10:27:33;;;;;;;15.02;2.38;;;25.10;93.70;;;;;;5052894;28;20033;-71
2023/12/16 10:30:03;;;;;;;12.40;2.55;;;25.20;93.50;;;;;;5054268;28;20118;-69
2023/12/16 10:32:30;;;;;;;14.60;2.38;;;25.00;93.70;;;;;;5048229;28;20029;-70
2023/12/16 10:34:58;;;;;;;10.48;1.95;;;25.20;93.60;;;;;;5054619;28;20031;-70
2023/12/16 10:37:26;;;;;;;12.43;2.00;;;25.30;93.60;;;;;;5039468;28;20032;-70
2023/12/16 10:39:53;;;;;;;16.08;2.58;;;25.40;93.70;;;;;;5054015;28;20071;-69
2023/12/16 10:42:21;;;;;;;13.15;1.90;;;25.40;93.30;;;;;;5053763;28;20486;-70
2023/12/16 10:44:49;;;;;;;23.63;2.78;;;25.60;93.40;;;;;;5052582;28;20067;-70
2023/12/16 10:47:25;;;;;;;17.02;2.53;;;25.60;93.50;;;;;;5054878;28;20029;-70
2023/12/16 10:50:25;;;;;;;15.43;2.53;;;25.30;93.60;;;;;;5053187;28;20033;-70
2023/12/16 10:53:00;;;;;;;14.10;2.50;;;25.00;94.20;;;;;;5031538;28;20386;-70
2023/12/16 10:55:37;;;;;;;14.05;2.10;;;24.90;94.20;;;;;;5053420;28;20033;-70
2023/12/16 10:58:26;;;;;;;14.32;1.95;;;24.90;94.20;;;;;;5051746;28;20394;-70
2023/12/16 11:01:06;;;;;;;11.52;1.73;;;24.70;94.80;;;;;;5055321;28;20051;-71
2023/12/16 11:04:03;;;;;;;12.00;2.38;;;24.90;94.50;;;;;;5052586;28;20036;-73
2023/12/16 11:06:43;;;;;;;17.45;2.58;;;24.70;94.90;;;;;;5053201;28;20045;-72
2023/12/16 11:09:13;;;;;;;14.73;2.78;;;24.60;95.20;;;;;;5050313;28;20513;-72
2023/12/16 11:11:42;;;;;;;22.33;2.63;;;24.40;95.70;;;;;;5048603;28;20090;-72
2023/12/16 11:14:12;;;;;;;10.55;1.90;;;24.30;96.10;;;;;;5033895;28;20082;-73
2023/12/16 11:17:13;;;;;;;12.55;2.03;;;24.30;96.30;;;;;;5049269;28;20043;-72
2023/12/16 11:19:50;;;;;;;18.33;3.38;;;24.30;96.40;;;;;;5053945;28;20029;-73
2023/12/16 11:22:21;;;;;;;20.67;3.55;;;24.20;96.70;;;;;;5034794;28;20490;-72
2023/12/16 11:24:50;;;;;;;14.27;2.60;;;24.20;96.60;;;;;;5051607;28;20037;-72
2023/12/16 11:27:19;;;;;;;15.43;2.80;;;24.30;96.70;;;;;;5032535;28;20048;-73
2023/12/16 11:29:47;;;;;;;20.23;2.90;;;24.30;96.80;;;;;;5032966;28;20115;-73
2023/12/16 11:32:14;;;;;;;21.27;2.47;;;24.50;96.50;;;;;;5047953;28;20072;-72
2023/12/16 11:34:43;;;;;;;13.65;3.15;;;24.50;96.30;;;;;;5051770;28;20079;-72
2023/12/16 11:37:12;;;;;;;18.95;2.63;;;24.30;96.80;;;;;;5050816;28;20059;-72
2023/12/16 11:39:45;;;;;;;14.43;2.05;;;24.30;96.50;;;;;;5028615;28;20037;-70
2023/12/16 11:42:14;;;;;;;11.80;2.60;;;24.30;96.70;;;;;;5049041;28;20012;-73
2023/12/16 11:44:57;;;;;;;10.73;2.17;;;24.20;97.00;;;;;;5044010;28;20469;-72
2023/12/16 11:47:28;;;;;;;14.75;2.00;;;24.20;96.90;;;;;;5047734;28;20064;-72
2023/12/16 11:49:58;;;;;;;15.60;3.00;;;24.00;97.00;;;;;;5047415;28;20032;-71
2023/12/16 11:52:27;;;;;;;11.65;2.55;;;23.90;97.30;;;;;;5049216;28;20114;-72
2023/12/16 11:54:56;;;;;;;15.05;2.33;;;23.90;97.40;;;;;;5057815;28;20083;-71
2023/12/16 11:57:25;;;;;;;19.20;2.20;;;23.90;97.30;;;;;;5047476;28;20120;-71
2023/12/16 11:59:54;;;;;;;16.33;2.67;;;24.00;97.20;;;;;;5050301;28;20100;-72
2023/12/16 12:02:22;;;;;;;23.65;2.50;;;23.90;97.20;;;;;;5057950;28;20052;-72
2023/12/16 12:04:49;;;;;;;15.75;2.92;;;23.60;97.50;;;;;;5051305;28;20451;-71
2023/12/16 12:07:17;;;;;;;21.38;2.85;;;23.70;97.60;;;;;;5037430;28;20033;-71
2023/12/16 12:09:45;;;;;;;12.57;2.10;;;23.50;97.90;;;;;;5051288;28;20466;-72
2023/12/16 12:12:13;;;;;;;15.20;2.65;;;23.50;97.90;;;;;;5049496;28;20037;-73
2023/12/16 12:14:46;;;;;;;10.90;1.90;;;23.40;98.00;;;;;;5056337;28;20382;-72
2023/12/16 12:17:15;;;;;;;14.32;2.70;;;23.30;98.30;;;;;;5049471;28;20019;-72
2023/12/16 12:19:43;;;;;;;7.60;1.90;;;23.30;98.30;;;;;;5054284;28;20029;-72
2023/12/16 12:22:11;;;;;;;15.35;2.25;;;23.20;98.30;;;;;;5054121;28;20048;-73
2023/12/16 12:24:38;;;;;;;11.38;2.28;;;23.20;98.40;;;;;;5057952;28;20086;-72
2023/12/16 12:27:06;;;;;;;17.25;3.33;;;23.20;98.50;;;;;;5057450;28;20120;-72
2023/12/16 12:30:01;;;;;;;17.73;3.20;;;23.30;98.40;;;;;;5035781;28;20037;-73
2023/12/16 12:32:30;;;;;;;11.63;2.60;;;23.30;98.40;;;;;;5059830;28;20103;-73
2023/12/16 12:35:02;;;;;;;14.25;2.40;;;23.30;98.30;;;;;;5056465;28;20531;-72
2023/12/16 12:37:45;;;;;;;12.68;2.22;;;23.40;98.40;;;;;;5060507;28;20016;-73
2023/12/16 12:40:17;;;;;;;19.40;2.45;;;23.30;98.30;;;;;;5061155;28;20016;-72
2023/12/16 12:42:51;;;;;;;17.60;2.40;;;23.40;98.10;;;;;;5059095;28;20078;-72
2023/12/16 12:45:35;;;;;;;11.45;2.10;;;23.50;98.10;;;;;;5056997;28;20017;-73
2023/12/16 12:48:14;;;;;;;10.50;1.95;;;23.30;98.40;;;;;;5057007;28;20026;-73
2023/12/16 12:50:42;;;;;;;11.52;2.50;;;23.30;98.50;;;;;;5042002;28;20044;-73